LIPL/QBS METAR and TAF weather

Enter ICAO airport designator
Station Type Date Time Source
LIPL METAR 2021/03/04 23:55 UTC NOAA

LIPL 042355Z 26004KT 6000 NSC 07/07 Q1017 RMK FEW FEW150 VIS MIN 6000 WIND THR31 25004KT WIND THR13 25005KT WHT


Station Type Date Time Source
LIPL Decoded METAR 2021/03/04 23:55 UTC NOAA

Brescia / Ghedi, Italy (LIPL) 45-25N 010-17E 97M
Mar 04, 2021 - 06:55 PM EST / 2021.03.04 2355 UTC
Wind: from the W (260 degrees) at 5 MPH (4 KT):0
Visibility: 3 mile(s):0
Temperature: 44 F (7 C)
Dew Point: 44 F (7 C)
Relative Humidity: 100%
Pressure (altimeter): 30.03 in. Hg (1017 hPa)
ob: LIPL 042355Z 26004KT 6000 NSC 07/07 Q1017 RMK FEW FEW150 VIS MIN 6000 WIND THR31 25004KT WIND THR13 25005KT WHT
cycle: 0

Station Type Date Time Source
LIPL TAF 2021/01/12 09:30 UTC NOAA

TAF TAF LIPL 120800Z 1209/1221 27005KT CAVOK
TEMPO 1209/1211 5000 BR NSC

Example: see airport list